Time;durP1;ratioP1;P1;durP2;ratioP2;P2;SDS_P1;SDS_P2;PMS_P1;PMS_P2;Temp;Humidity;BMP_temperature;BMP_pressure;BME280_temperature;BME280_humidity;BME280_pressure;Samples;Min_cycle;Max_cycle;Signal;HPM_P1;HPM_P2
2022/09/13 00:00:45;;;;;;;5.25;3.20;;;21.60;64.00;;;;;;4954112;29;20066;-70
2022/09/13 00:03:11;;;;;;;4.90;3.03;;;21.60;64.00;;;;;;4954207;29;20399;-70
2022/09/13 00:05:38;;;;;;;4.03;2.97;;;21.60;64.00;;;;;;4954018;29;20035;-70
2022/09/13 00:08:05;;;;;;;5.72;3.50;;;21.60;64.00;;;;;;4954136;29;20162;-70
2022/09/13 00:10:37;;;;;;;4.90;3.38;;;21.60;64.00;;;;;;4954020;29;20058;-70
2022/09/13 00:13:05;;;;;;;4.97;3.20;;;21.60;64.00;;;;;;4953937;29;20120;-70
2022/09/13 00:15:31;;;;;;;5.13;3.50;;;21.60;64.00;;;;;;4953804;29;20597;-70
2022/09/13 00:17:57;;;;;;;5.45;3.30;;;21.60;64.00;;;;;;4937004;29;20142;-70
2022/09/13 00:20:23;;;;;;;5.03;3.20;;;21.60;64.00;;;;;;4954021;29;20431;-70
2022/09/13 00:22:49;;;;;;;6.70;3.17;;;21.60;64.00;;;;;;4936922;29;20027;-69
2022/09/13 00:25:14;;;;;;;4.55;3.15;;;21.60;64.00;;;;;;4953584;29;20035;-69
2022/09/13 00:27:40;;;;;;;4.55;3.28;;;21.60;64.00;;;;;;4953813;29;20066;-69
2022/09/13 00:30:07;;;;;;;5.05;3.40;;;21.60;64.00;;;;;;4953799;29;20063;-70
2022/09/13 00:32:34;;;;;;;5.93;3.70;;;21.60;64.00;;;;;;4936414;29;20511;-70
2022/09/13 00:35:00;;;;;;;4.90;3.15;;;21.60;64.00;;;;;;4953378;29;20114;-70
2022/09/13 00:37:26;;;;;;;4.95;3.15;;;21.60;64.10;;;;;;4953827;29;20130;-70
2022/09/13 00:39:52;;;;;;;4.68;3.22;;;21.60;64.00;;;;;;4953813;29;20074;-70
2022/09/13 00:42:27;;;;;;;5.90;3.20;;;21.60;64.10;;;;;;4953723;29;20030;-70
2022/09/13 00:44:59;;;;;;;5.55;3.33;;;21.60;64.10;;;;;;4953350;29;20043;-70
2022/09/13 00:47:45;;;;;;;4.18;2.85;;;21.60;64.10;;;;;;4953687;29;20043;-70
2022/09/13 00:50:16;;;;;;;6.60;3.70;;;21.60;64.00;;;;;;4953776;29;20344;-70
2022/09/13 00:52:46;;;;;;;4.55;3.38;;;21.60;64.10;;;;;;4953650;29;20038;-70
2022/09/13 00:55:32;;;;;;;;;;;21.60;64.10;;;;;;4953670;29;20058;-70
2022/09/13 00:58:03;;;;;;;4.15;3.28;;;21.60;64.00;;;;;;4952949;29;19910;-70
2022/09/13 01:00:29;;;;;;;4.95;3.13;;;21.60;63.90;;;;;;4936362;29;20488;-69
2022/09/13 01:03:00;;;;;;;5.65;3.38;;;21.60;64.00;;;;;;4953773;28;20051;-69
2022/09/13 01:05:31;;;;;;;5.53;3.13;;;21.60;64.00;;;;;;4957336;29;20063;-70
2022/09/13 01:07:59;;;;;;;4.55;3.30;;;21.60;64.00;;;;;;4957333;29;20062;-69
2022/09/13 01:10:26;;;;;;;4.05;3.00;;;21.60;64.00;;;;;;4957347;29;20034;-70
2022/09/13 01:13:03;;;;;;;5.15;3.40;;;21.60;63.90;;;;;;4957112;29;20118;-69
2022/09/13 01:15:29;;;;;;;4.68;3.00;;;21.60;64.00;;;;;;4956924;29;20071;-69
2022/09/13 01:17:55;;;;;;;4.03;3.05;;;21.60;64.00;;;;;;4957090;29;20058;-68
2022/09/13 01:20:44;;;;;;;4.05;2.90;;;21.60;64.00;;;;;;4956992;29;20023;-70
2022/09/13 01:23:46;;;;;;;4.10;2.95;;;21.60;64.00;;;;;;4956831;29;20097;-69
2022/09/13 01:26:33;;;;;;;5.13;3.03;;;21.60;64.00;;;;;;4957036;29;20031;-69
2022/09/13 01:29:19;;;;;;;5.53;3.13;;;21.60;64.00;;;;;;4956868;29;20514;-69
2022/09/13 01:31:56;;;;;;;4.30;3.10;;;21.60;64.00;;;;;;4957175;29;20031;-69
2022/09/13 01:34:48;;;;;;;4.60;3.03;;;21.60;64.00;;;;;;4956461;29;20491;-69
2022/09/13 01:37:45;;;;;;;5.03;3.17;;;21.60;64.00;;;;;;4956841;29;20054;-69
2022/09/13 01:40:49;;;;;;;6.50;3.15;;;21.60;64.00;;;;;;4956765;29;20024;-68
2022/09/13 01:43:30;;;;;;;5.35;2.88;;;21.60;64.00;;;;;;4913506;29;20039;-69
2022/09/13 01:46:06;;;;;;;4.32;2.97;;;21.60;64.10;;;;;;4956592;29;20519;-68
2022/09/13 01:48:48;;;;;;;3.55;2.42;;;21.60;64.00;;;;;;4939669;29;20043;-69
2022/09/13 01:51:46;;;;;;;4.30;3.00;;;21.60;64.00;;;;;;4939832;29;20469;-69
2022/09/13 01:54:35;;;;;;;4.47;3.00;;;21.60;64.10;;;;;;4916445;29;20118;-70
2022/09/13 01:57:12;;;;;;;4.80;3.15;;;21.50;64.00;;;;;;4956534;29;20127;-69
2022/09/13 01:59:42;;;;;;;4.00;2.88;;;21.60;64.10;;;;;;4939349;29;20031;-69
2022/09/13 02:02:15;;;;;;;4.55;2.90;;;21.60;64.10;;;;;;4956580;29;20027;-69
2022/09/13 02:04:46;;;;;;;5.03;3.30;;;21.50;64.00;;;;;;4956018;29;20471;-69
2022/09/13 02:07:29;;;;;;;4.57;2.83;;;21.60;64.10;;;;;;4939341;29;20035;-69
2022/09/13 02:10:01;;;;;;;5.15;3.28;;;21.60;64.10;;;;;;4956262;29;20055;-69
2022/09/13 02:12:30;;;;;;;5.03;2.85;;;21.60;64.10;;;;;;4956063;29;20027;-70
2022/09/13 02:15:06;;;;;;;5.18;2.92;;;21.60;64.10;;;;;;4955020;28;20038;-69
2022/09/13 02:17:37;;;;;;;4.75;3.15;;;21.60;64.70;;;;;;4956431;29;20030;-70
2022/09/13 02:20:20;;;;;;;5.25;2.95;;;21.60;64.10;;;;;;4938801;29;20504;-70
2022/09/13 02:22:52;;;;;;;3.88;2.60;;;21.60;64.10;;;;;;4955824;29;20031;-70
2022/09/13 02:25:20;;;;;;;4.40;2.83;;;21.50;64.00;;;;;;4955691;29;20023;-69
2022/09/13 02:27:57;;;;;;;4.70;2.90;;;21.50;64.00;;;;;;4955928;29;20038;-70
2022/09/13 02:30:24;;;;;;;4.43;2.90;;;21.60;64.10;;;;;;4956000;29;20050;-69
2022/09/13 02:33:02;;;;;;;3.80;2.67;;;21.60;64.10;;;;;;4955760;29;20423;-69
2022/09/13 02:35:33;;;;;;;4.63;2.80;;;21.60;64.10;;;;;;4955539;29;20373;-69
2022/09/13 02:38:21;;;;;;;4.75;3.13;;;21.50;64.10;;;;;;4938638;29;20514;-70
2022/09/13 02:40:56;;;;;;;4.13;2.80;;;21.60;64.10;;;;;;4955698;29;20062;-70
2022/09/13 02:43:33;;;;;;;4.93;2.80;;;21.50;64.00;;;;;;4955183;29;20106;-70
2022/09/13 02:46:19;;;;;;;4.22;2.90;;;21.50;64.10;;;;;;4955528;29;20067;-69
2022/09/13 02:48:58;;;;;;;4.15;2.90;;;21.50;64.00;;;;;;4955569;29;20062;-70
2022/09/13 02:51:35;;;;;;;3.67;2.70;;;21.50;64.00;;;;;;4955544;29;20110;-69
2022/09/13 02:54:36;;;;;;;5.07;3.00;;;21.50;64.10;;;;;;4955281;29;20427;-70
2022/09/13 02:57:19;;;;;;;4.38;3.00;;;21.50;64.10;;;;;;4922106;29;20043;-69
2022/09/13 02:59:46;;;;;;;4.10;3.10;;;21.50;64.10;;;;;;4955356;29;20050;-70
2022/09/13 03:02:15;;;;;;;4.82;2.85;;;21.50;64.10;;;;;;4955251;29;20067;-70
2022/09/13 03:04:41;;;;;;;3.47;2.60;;;21.50;64.10;;;;;;4954911;29;20118;-70
2022/09/13 03:07:12;;;;;;;5.40;3.00;;;21.50;64.10;;;;;;4937939;29;20042;-69
2022/09/13 03:10:08;;;;;;;4.95;2.90;;;21.50;64.10;;;;;;4955165;29;20496;-70
2022/09/13 03:13:07;;;;;;;5.32;3.22;;;21.50;64.10;;;;;;4948732;29;20043;-70
2022/09/13 03:15:44;;;;;;;5.05;3.15;;;21.50;64.00;;;;;;4955174;29;20089;-70
2022/09/13 03:18:22;;;;;;;4.53;2.78;;;21.50;64.10;;;;;;4955131;29;20503;-70
2022/09/13 03:21:10;;;;;;;3.65;2.83;;;21.50;64.10;;;;;;4954846;29;20094;-69
2022/09/13 03:23:57;;;;;;;3.90;2.90;;;21.50;64.10;;;;;;4954467;29;20023;-69
2022/09/13 03:26:56;;;;;;;3.90;2.72;;;21.50;64.10;;;;;;4921609;29;20043;-69
2022/09/13 03:29:51;;;;;;;4.07;2.88;;;21.50;64.00;;;;;;4937703;29;20452;-69
2022/09/13 03:32:25;;;;;;;5.05;3.15;;;21.50;64.00;;;;;;4954653;29;20082;-69
2022/09/13 03:35:07;;;;;;;3.88;2.67;;;21.50;64.00;;;;;;4937156;29;20031;-68
2022/09/13 03:37:45;;;;;;;4.20;2.90;;;21.50;64.00;;;;;;4954626;29;20046;-69
2022/09/13 03:40:23;;;;;;;4.63;2.92;;;21.50;64.00;;;;;;4937344;29;20047;-69
2022/09/13 03:42:57;;;;;;;3.85;2.80;;;21.50;64.00;;;;;;4954531;29;20373;-69
2022/09/13 03:45:28;;;;;;;4.28;2.90;;;21.60;64.00;;;;;;4954214;29;20442;-69
2022/09/13 03:47:56;;;;;;;5.65;3.00;;;21.60;64.00;;;;;;4954776;29;20110;-69
2022/09/13 03:50:23;;;;;;;6.32;3.13;;;21.50;63.90;;;;;;4954627;29;20035;-69
2022/09/13 03:52:57;;;;;;;4.32;2.90;;;21.50;63.90;;;;;;4954347;29;20388;-69
2022/09/13 03:55:24;;;;;;;3.90;2.60;;;21.50;64.40;;;;;;4953995;29;20031;-69
2022/09/13 03:57:50;;;;;;;4.68;3.05;;;21.50;63.90;;;;;;4954285;29;20085;-69
2022/09/13 04:00:17;;;;;;;4.18;2.58;;;21.50;64.00;;;;;;4954220;29;20106;-69
2022/09/13 04:02:43;;;;;;;4.63;2.78;;;21.50;64.00;;;;;;4954152;29;20500;-69
2022/09/13 04:05:09;;;;;;;4.70;2.55;;;21.50;64.00;;;;;;4953837;29;20142;-69
2022/09/13 04:07:34;;;;;;;4.10;2.85;;;21.50;63.90;;;;;;4954254;29;20118;-69
2022/09/13 04:10:00;;;;;;;4.32;2.60;;;21.50;64.00;;;;;;4954071;29;20479;-69
2022/09/13 04:12:30;;;;;;;3.75;2.70;;;21.50;64.00;;;;;;4954057;29;20070;-69
2022/09/13 04:14:56;;;;;;;;;;;21.50;64.10;;;;;;4954116;29;20023;-69
2022/09/13 04:17:22;;;;;;;4.32;2.80;;;21.50;64.10;;;;;;4937091;29;20286;-69
2022/09/13 04:19:47;;;;;;;4.68;2.97;;;21.50;64.00;;;;;;4953889;29;20078;-69
2022/09/13 04:22:14;;;;;;;4.22;2.65;;;21.50;64.00;;;;;;4936776;29;20024;-69
2022/09/13 04:24:42;;;;;;;4.78;2.90;;;21.50;64.00;;;;;;4953483;29;20035;-69
2022/09/13 04:27:08;;;;;;;3.97;2.60;;;21.50;64.10;;;;;;4936773;29;20480;-68
2022/09/13 04:29:34;;;;;;;4.00;2.60;;;21.50;64.10;;;;;;4953994;29;20031;-69
2022/09/13 04:32:00;;;;;;;4.55;2.88;;;21.50;64.10;;;;;;4953808;29;20037;-69
2022/09/13 04:34:26;;;;;;;3.55;2.70;;;21.50;64.10;;;;;;4953353;29;20023;-69
2022/09/13 04:36:52;;;;;;;4.03;2.50;;;21.50;64.00;;;;;;4953746;29;20119;-69
2022/09/13 04:39:19;;;;;;;4.05;2.55;;;21.50;64.10;;;;;;4936331;29;20115;-70
2022/09/13 04:41:47;;;;;;;3.97;2.78;;;21.50;64.30;;;;;;4953732;29;20027;-69
2022/09/13 04:44:14;;;;;;;5.07;2.65;;;21.50;64.10;;;;;;4953371;29;20036;-69
2022/09/13 04:46:40;;;;;;;4.45;3.17;;;21.50;64.10;;;;;;4953729;29;20448;-69
2022/09/13 04:49:06;;;;;;;4.65;2.75;;;21.50;64.00;;;;;;4953772;29;20039;-69
2022/09/13 04:51:32;;;;;;;4.00;2.60;;;21.50;64.10;;;;;;4921041;29;20113;-69
2022/09/13 04:53:59;;;;;;;3.60;2.38;;;21.50;64.10;;;;;;4953264;29;20496;-69
2022/09/13 04:56:25;;;;;;;4.32;2.90;;;21.50;64.10;;;;;;4953507;29;20042;-69
2022/09/13 04:58:52;;;;;;;4.82;2.92;;;21.50;64.10;;;;;;4953625;29;20155;-69
2022/09/13 05:01:18;;;;;;;4.90;2.90;;;21.50;64.10;;;;;;4954057;29;20040;-69
2022/09/13 05:03:44;;;;;;;4.07;2.72;;;21.50;64.10;;;;;;4927765;29;20400;-69
2022/09/13 05:06:12;;;;;;;5.28;2.83;;;21.50;64.10;;;;;;4933399;29;20027;-69
2022/09/13 05:08:38;;;;;;;4.25;2.83;;;21.50;64.10;;;;;;4933513;29;20032;-69
2022/09/13 05:11:05;;;;;;;4.43;2.95;;;21.50;64.20;;;;;;4934082;29;20032;-68
2022/09/13 05:13:32;;;;;;;3.92;2.55;;;21.50;64.10;;;;;;4933851;29;20376;-69
2022/09/13 05:16:00;;;;;;;3.17;2.55;;;21.50;64.20;;;;;;4934720;29;20024;-69
2022/09/13 05:18:28;;;;;;;3.70;2.58;;;21.50;64.10;;;;;;4917251;29;20047;-69
2022/09/13 05:20:55;;;;;;;3.58;2.47;;;21.50;64.10;;;;;;4934214;29;20472;-69
2022/09/13 05:23:21;;;;;;;4.97;2.83;;;21.50;64.20;;;;;;4933843;29;20028;-69
2022/09/13 05:25:58;;;;;;;4.28;2.70;;;21.50;64.20;;;;;;4934242;29;20032;-69
2022/09/13 05:28:26;;;;;;;3.42;2.63;;;21.50;64.20;;;;;;4901359;29;20039;-69
2022/09/13 05:31:00;;;;;;;4.70;2.50;;;21.50;64.10;;;;;;4917223;29;20035;-69
2022/09/13 05:33:28;;;;;;;4.05;2.80;;;21.50;64.10;;;;;;4933799;29;20044;-69
2022/09/13 05:35:54;;;;;;;3.50;2.42;;;21.50;64.10;;;;;;4934157;29;20040;-69
2022/09/13 05:38:20;;;;;;;5.00;3.08;;;21.50;64.20;;;;;;4933592;29;20032;-68
2022/09/13 05:40:46;;;;;;;3.85;2.80;;;21.50;64.10;;;;;;4933837;29;20106;-69
2022/09/13 05:43:12;;;;;;;4.18;2.72;;;21.50;64.00;;;;;;4916623;29;20115;-69
2022/09/13 05:45:38;;;;;;;3.97;2.90;;;21.50;64.20;;;;;;4934071;29;20124;-69
2022/09/13 05:48:04;;;;;;;3.92;2.55;;;21.50;64.00;;;;;;4901164;29;20399;-69
2022/09/13 05:50:30;;;;;;;4.63;2.70;;;21.50;64.10;;;;;;4935302;29;20035;-69
2022/09/13 05:52:56;;;;;;;3.50;2.72;;;21.50;64.00;;;;;;4937173;29;20035;-69
2022/09/13 05:55:22;;;;;;;3.53;2.58;;;21.50;63.90;;;;;;4937029;29;20031;-69
2022/09/13 05:57:49;;;;;;;4.57;2.58;;;21.50;64.00;;;;;;4937156;29;20032;-69
2022/09/13 06:00:15;;;;;;;3.65;2.35;;;21.50;64.00;;;;;;4920310;29;20023;-69
2022/09/13 06:02:41;;;;;;;3.85;2.45;;;21.50;63.90;;;;;;4937077;29;20416;-69
2022/09/13 06:05:12;;;;;;;4.18;2.70;;;21.50;63.90;;;;;;4936803;29;20032;-69
2022/09/13 06:07:41;;;;;;;3.80;2.60;;;21.50;63.90;;;;;;4937055;29;20034;-69
2022/09/13 06:10:09;;;;;;;5.38;2.92;;;21.50;63.90;;;;;;4919976;29;20031;-68
2022/09/13 06:12:35;;;;;;;3.35;2.65;;;21.50;63.90;;;;;;4920085;29;20106;-69
2022/09/13 06:15:02;;;;;;;4.28;2.65;;;21.50;63.90;;;;;;4936497;29;20472;-69
2022/09/13 06:17:28;;;;;;;5.60;2.70;;;21.50;63.90;;;;;;4936955;29;20440;-69
2022/09/13 06:19:55;;;;;;;4.57;2.78;;;21.50;63.90;;;;;;4936789;29;20035;-69
2022/09/13 06:22:21;;;;;;;3.75;2.60;;;21.50;63.90;;;;;;4936823;29;20436;-69
2022/09/13 06:24:47;;;;;;;3.20;2.42;;;21.50;63.90;;;;;;4936348;29;20032;-68
2022/09/13 06:27:13;;;;;;;3.63;2.60;;;21.50;63.90;;;;;;4903924;29;20095;-69
2022/09/13 06:29:39;;;;;;;4.20;2.63;;;21.50;63.90;;;;;;4936725;29;20038;-68
2022/09/13 06:32:05;;;;;;;3.78;2.40;;;21.50;64.00;;;;;;4936778;29;20035;-69
2022/09/13 06:34:30;;;;;;;4.30;2.65;;;21.50;64.00;;;;;;4919100;29;20038;-69
2022/09/13 06:36:56;;;;;;;4.07;2.88;;;21.50;64.10;;;;;;4919579;29;20035;-69
2022/09/13 06:39:22;;;;;;;3.35;2.40;;;21.50;64.00;;;;;;4936434;29;20051;-69
2022/09/13 06:41:48;;;;;;;3.83;2.60;;;21.50;64.00;;;;;;4936486;29;20059;-69
2022/09/13 06:44:13;;;;;;;4.57;2.60;;;21.50;64.00;;;;;;4903379;29;20032;-68
2022/09/13 06:46:39;;;;;;;4.00;2.35;;;21.50;64.00;;;;;;4919295;29;20031;-69
2022/09/13 06:49:07;;;;;;;3.15;2.40;;;21.50;64.00;;;;;;4936244;29;20028;-70
2022/09/13 06:51:34;;;;;;;3.42;2.55;;;21.50;64.10;;;;;;4919601;29;20074;-70
2022/09/13 06:54:01;;;;;;;3.50;2.63;;;21.50;64.00;;;;;;4918920;29;20453;-70
2022/09/13 06:56:29;;;;;;;5.40;2.90;;;21.50;64.00;;;;;;4936170;29;20114;-70
2022/09/13 06:59:00;;;;;;;4.38;2.60;;;21.50;64.00;;;;;;4919187;29;20027;-70
2022/09/13 07:01:31;;;;;;;3.60;2.60;;;21.50;64.00;;;;;;4935754;29;20055;-70
2022/09/13 07:03:59;;;;;;;4.00;2.72;;;21.40;63.90;;;;;;4935660;29;20034;-70
2022/09/13 07:06:27;;;;;;;3.60;2.53;;;21.50;64.10;;;;;;4935842;29;20032;-70
2022/09/13 07:08:55;;;;;;;3.80;2.83;;;21.50;64.00;;;;;;4918935;29;20047;-70
2022/09/13 07:11:23;;;;;;;3.70;2.30;;;21.50;64.00;;;;;;4935914;29;20038;-70
2022/09/13 07:13:54;;;;;;;3.92;2.75;;;21.50;64.00;;;;;;4918596;29;20437;-70
2022/09/13 07:16:22;;;;;;;4.50;2.75;;;21.50;64.00;;;;;;4935848;29;20033;-70
2022/09/13 07:18:56;;;;;;;3.72;2.50;;;21.50;64.00;;;;;;4935683;29;20023;-70
2022/09/13 07:21:22;;;;;;;4.25;2.80;;;21.50;64.00;;;;;;4935761;29;20024;-70
2022/09/13 07:23:48;;;;;;;3.83;2.65;;;21.50;64.00;;;;;;4935241;29;20515;-70
2022/09/13 07:26:14;;;;;;;3.92;2.75;;;21.50;64.00;;;;;;4935674;29;20034;-69
2022/09/13 07:28:43;;;;;;;4.28;2.78;;;21.50;64.10;;;;;;4935697;29;20031;-70
2022/09/13 07:31:27;;;;;;;3.53;2.42;;;21.40;64.00;;;;;;4935496;29;20042;-70
2022/09/13 07:33:56;;;;;;;3.60;2.50;;;21.50;64.10;;;;;;4920509;29;20028;-70
2022/09/13 07:36:22;;;;;;;3.22;2.47;;;21.40;64.00;;;;;;4935397;29;20035;-69
2022/09/13 07:38:48;;;;;;;3.88;2.63;;;21.50;64.10;;;;;;4935261;29;20028;-70
2022/09/13 07:41:19;;;;;;;3.53;2.45;;;21.50;64.10;;;;;;4935302;29;20030;-70
2022/09/13 07:43:45;;;;;;;4.72;2.90;;;21.50;64.10;;;;;;4917876;29;20031;-70
2022/09/13 07:46:14;;;;;;;3.53;2.45;;;21.40;64.10;;;;;;4918206;29;20027;-70
2022/09/13 07:48:42;;;;;;;3.25;2.45;;;21.50;64.10;;;;;;4918327;29;20031;-69
2022/09/13 07:51:10;;;;;;;3.78;2.65;;;21.50;64.10;;;;;;4918187;29;20062;-70
2022/09/13 07:53:37;;;;;;;3.72;2.47;;;21.50;64.10;;;;;;4934847;29;20036;-69
2022/09/13 07:56:10;;;;;;;3.47;2.28;;;21.40;64.10;;;;;;4935093;29;20055;-70
2022/09/13 07:58:38;;;;;;;3.13;2.38;;;21.50;64.10;;;;;;4935154;29;20040;-70
2022/09/13 08:01:07;;;;;;;3.80;2.58;;;21.50;64.10;;;;;;4935126;29;20484;-70
2022/09/13 08:03:34;;;;;;;3.92;2.55;;;21.50;64.10;;;;;;4917969;29;20043;-70
2022/09/13 08:06:01;;;;;;;3.33;2.30;;;21.50;64.10;;;;;;4934922;29;20070;-70
2022/09/13 08:08:28;;;;;;;4.15;2.60;;;21.50;64.10;;;;;;4934983;29;20031;-70
2022/09/13 08:10:54;;;;;;;4.35;2.50;;;21.50;64.10;;;;;;4934774;29;20063;-70
2022/09/13 08:13:19;;;;;;;3.45;2.47;;;21.50;64.10;;;;;;4933887;29;20351;-70
2022/09/13 08:15:45;;;;;;;5.18;3.10;;;21.50;64.00;;;;;;4917898;29;20090;-69
2022/09/13 08:18:11;;;;;;;4.90;2.97;;;21.50;64.00;;;;;;4934860;29;20027;-70
2022/09/13 08:20:38;;;;;;;4.65;2.78;;;21.50;64.00;;;;;;4934714;29;20431;-69
2022/09/13 08:23:06;;;;;;;3.70;2.45;;;21.50;64.00;;;;;;4902178;29;20028;-70
2022/09/13 08:25:36;;;;;;;3.08;2.45;;;21.50;64.00;;;;;;4902011;29;20492;-70
2022/09/13 08:28:06;;;;;;;4.18;2.67;;;21.50;64.00;;;;;;4917729;29;20032;-70
2022/09/13 08:30:34;;;;;;;;;;;21.50;63.90;;;;;;4935012;29;20075;-70
2022/09/13 08:33:01;;;;;;;4.53;2.83;;;21.50;64.00;;;;;;4917754;29;20295;-70
2022/09/13 08:35:28;;;;;;;4.30;2.63;;;21.50;63.90;;;;;;4934180;29;20388;-70
2022/09/13 08:37:54;;;;;;;3.92;2.60;;;21.50;63.90;;;;;;4934596;29;20078;-70
2022/09/13 08:40:21;;;;;;;3.63;2.50;;;21.50;63.90;;;;;;4917489;29;20027;-70
2022/09/13 08:43:05;;;;;;;4.07;2.80;;;21.50;63.90;;;;;;4934524;29;20028;-70
2022/09/13 08:45:31;;;;;;;4.13;2.80;;;21.50;64.00;;;;;;4917885;29;20035;-70
2022/09/13 08:48:17;;;;;;;3.45;2.28;;;21.50;63.90;;;;;;4934555;29;20448;-70
2022/09/13 08:50:44;;;;;;;4.30;2.72;;;21.50;63.90;;;;;;4917393;29;20044;-70
2022/09/13 08:53:25;;;;;;;4.25;2.60;;;21.50;63.80;;;;;;4917405;29;20032;-70
2022/09/13 08:56:09;;;;;;;3.60;2.80;;;21.50;63.90;;;;;;4934322;29;20106;-69
2022/09/13 08:58:48;;;;;;;3.33;2.45;;;21.50;63.90;;;;;;4917626;29;20028;-70
2022/09/13 09:01:47;;;;;;;3.85;2.63;;;21.50;64.00;;;;;;4934365;29;20099;-70
2022/09/13 09:04:25;;;;;;;4.40;2.70;;;21.50;64.00;;;;;;4916743;29;20504;-70
2022/09/13 09:07:13;;;;;;;4.13;2.70;;;21.50;64.00;;;;;;4934249;29;20027;-70
2022/09/13 09:09:54;;;;;;;4.63;2.63;;;21.50;64.00;;;;;;4901913;29;20039;-69
2022/09/13 09:12:36;;;;;;;4.38;2.70;;;21.50;64.00;;;;;;4934371;29;20110;-69
2022/09/13 09:15:16;;;;;;;3.13;2.33;;;21.50;64.00;;;;;;4933917;29;20038;-70
2022/09/13 09:17:54;;;;;;;4.38;2.50;;;21.50;64.00;;;;;;4934188;29;20383;-69
2022/09/13 09:20:23;;;;;;;3.95;2.65;;;21.60;64.10;;;;;;4901256;29;20457;-69
2022/09/13 09:22:51;;;;;;;3.70;2.60;;;21.50;64.10;;;;;;4933964;29;20028;-69
2022/09/13 09:25:23;;;;;;;3.97;2.55;;;21.50;64.00;;;;;;4936311;29;20038;-68
2022/09/13 09:27:50;;;;;;;3.70;2.40;;;21.50;64.00;;;;;;4937797;29;20028;-69
2022/09/13 09:30:16;;;;;;;4.43;2.58;;;21.50;64.00;;;;;;4937728;29;20079;-69
2022/09/13 09:33:28;;;;;;;3.55;2.60;;;21.60;64.00;;;;;;4937649;29;20035;-69
2022/09/13 09:36:06;;;;;;;4.00;2.80;;;21.60;63.90;;;;;;4860219;29;20053;-69
2022/09/13 09:38:42;;;;;;;3.40;2.35;;;21.60;64.00;;;;;;4860293;29;20034;-68
2022/09/13 09:41:25;;;;;;;3.95;2.63;;;21.60;64.00;;;;;;4907935;29;20119;-68
2022/09/13 09:43:59;;;;;;;3.50;2.42;;;21.60;64.10;;;;;;4937123;29;20028;-69
2022/09/13 09:46:37;;;;;;;4.72;2.78;;;21.60;64.10;;;;;;4937443;29;20028;-68
2022/09/13 09:52:13;;;;;;;3.78;2.67;;;21.50;64.10;;;;;;4920536;29;20123;-69
2022/09/13 09:54:40;;;;;;;3.17;2.30;;;21.60;64.20;;;;;;4919841;29;20071;-69
2022/09/13 09:57:06;;;;;;;3.75;2.72;;;21.60;64.30;;;;;;4937211;29;20054;-70
2022/09/13 09:59:33;;;;;;;4.22;2.50;;;21.50;64.20;;;;;;4937270;29;20079;-69
2022/09/13 10:02:14;;;;;;;4.72;2.70;;;21.50;64.30;;;;;;4920115;29;20471;-69
2022/09/13 10:04:40;;;;;;;3.78;2.70;;;21.50;64.20;;;;;;4936486;29;20031;-69
2022/09/13 10:07:22;;;;;;;5.50;2.65;;;21.60;64.20;;;;;;4937213;29;20024;-69
2022/09/13 10:10:03;;;;;;;4.25;2.70;;;21.60;64.20;;;;;;4937056;29;20046;-68
2022/09/13 10:12:33;;;;;;;3.70;2.30;;;21.60;64.10;;;;;;4936854;29;20031;-69
2022/09/13 10:15:06;;;;;;;;;;;21.60;64.30;;;;;;4919934;29;20032;-70
2022/09/13 10:17:32;;;;;;;3.55;2.53;;;21.60;64.20;;;;;;4919924;29;19911;-69
2022/09/13 10:20:00;;;;;;;3.50;2.40;;;21.50;64.20;;;;;;4904255;29;20507;-69
2022/09/13 10:22:31;;;;;;;3.58;2.38;;;21.60;64.20;;;;;;4919808;29;20027;-69
2022/09/13 10:25:14;;;;;;;3.65;2.70;;;21.60;64.30;;;;;;4936664;29;20035;-70
2022/09/13 10:27:49;;;;;;;3.08;2.42;;;21.60;64.40;;;;;;4936748;29;20046;-70
2022/09/13 10:30:26;;;;;;;4.03;2.63;;;21.50;64.30;;;;;;4936778;29;20053;-70
2022/09/13 10:32:56;;;;;;;2.88;2.40;;;21.50;64.30;;;;;;4936507;29;20039;-70
2022/09/13 10:35:23;;;;;;;5.53;2.80;;;21.50;64.40;;;;;;4935996;29;20074;-70
2022/09/13 10:37:48;;;;;;;2.88;2.22;;;21.50;64.40;;;;;;4936118;29;20031;-70
2022/09/13 10:40:28;;;;;;;3.25;2.50;;;21.50;64.40;;;;;;4919803;29;20671;-70
2022/09/13 10:43:00;;;;;;;3.78;2.70;;;21.50;64.40;;;;;;4936239;29;20472;-69
2022/09/13 10:45:29;;;;;;;2.97;2.42;;;21.50;64.40;;;;;;4936248;29;20035;-70
2022/09/13 10:48:02;;;;;;;3.27;2.33;;;21.50;64.40;;;;;;4936308;29;20024;-69
2022/09/13 10:50:34;;;;;;;3.85;2.70;;;21.50;64.30;;;;;;4936405;29;20038;-70
2022/09/13 10:53:02;;;;;;;4.82;2.85;;;21.50;64.30;;;;;;4936106;29;20036;-69
2022/09/13 10:55:37;;;;;;;3.33;2.40;;;21.50;64.20;;;;;;4935865;29;20177;-69
2022/09/13 10:58:06;;;;;;;3.72;2.33;;;21.50;64.20;;;;;;4936172;29;20043;-69
2022/09/13 11:00:35;;;;;;;4.38;2.60;;;21.50;64.30;;;;;;4936123;29;20036;-69
2022/09/13 11:03:00;;;;;;;3.90;2.67;;;21.50;64.30;;;;;;4936288;29;20028;-68
2022/09/13 11:05:39;;;;;;;3.03;2.40;;;21.60;64.40;;;;;;4935886;29;20039;-69
2022/09/13 11:08:22;;;;;;;3.25;2.50;;;21.50;64.30;;;;;;4918802;29;20038;-69
2022/09/13 11:11:20;;;;;;;3.65;2.50;;;21.50;64.30;;;;;;4903324;29;20043;-69
2022/09/13 11:14:00;;;;;;;3.15;2.30;;;21.50;64.30;;;;;;4920130;29;20408;-70
2022/09/13 11:16:57;;;;;;;4.05;2.85;;;21.50;64.30;;;;;;4919023;29;20079;-69
2022/09/13 11:19:29;;;;;;;2.90;2.40;;;21.50;64.40;;;;;;4935969;29;20056;-69
2022/09/13 11:21:54;;;;;;;3.50;2.55;;;21.50;64.40;;;;;;4935821;29;20020;-70
2022/09/13 11:24:44;;;;;;;2.80;2.28;;;21.50;64.40;;;;;;4935272;29;20091;-69
2022/09/13 11:27:19;;;;;;;3.17;2.22;;;21.50;64.40;;;;;;4935716;29;20159;-69
2022/09/13 11:30:04;;;;;;;3.72;2.70;;;21.50;64.40;;;;;;4935675;29;20048;-68
2022/09/13 11:33:02;;;;;;;3.45;2.50;;;21.50;64.40;;;;;;4935476;29;20024;-69
2022/09/13 11:35:54;;;;;;;3.60;2.45;;;21.50;64.50;;;;;;4903222;29;20332;-69
2022/09/13 11:38:58;;;;;;;4.18;2.75;;;21.50;65.00;;;;;;4918502;29;20484;-69
2022/09/13 11:41:31;;;;;;;3.75;2.53;;;21.50;64.40;;;;;;4914723;29;20044;-69
2022/09/13 11:44:16;;;;;;;3.00;2.25;;;21.50;64.50;;;;;;4935971;23;20047;-78
2022/09/13 11:46:51;;;;;;;3.45;2.50;;;21.50;64.30;;;;;;4936356;29;20024;-78
2022/09/13 11:49:43;;;;;;;3.30;2.45;;;21.50;64.50;;;;;;4903543;29;20068;-78
2022/09/13 11:52:31;;;;;;;3.72;2.53;;;21.50;64.40;;;;;;4936224;29;20040;-77
2022/09/13 11:55:22;;;;;;;3.15;2.47;;;21.50;64.40;;;;;;4919027;29;20031;-78
2022/09/13 11:58:01;;;;;;;3.53;2.70;;;21.50;64.40;;;;;;4919767;29;20028;-77
2022/09/13 12:00:48;;;;;;;4.45;2.83;;;21.50;64.50;;;;;;4919113;29;20042;-78
2022/09/13 12:03:25;;;;;;;3.70;2.70;;;21.50;64.50;;;;;;4918317;29;20032;-77
2022/09/13 12:05:55;;;;;;;4.18;2.70;;;21.50;64.50;;;;;;4919038;29;20090;-79
2022/09/13 12:08:29;;;;;;;4.63;2.60;;;21.50;64.60;;;;;;4935938;29;20549;-78
2022/09/13 12:11:02;;;;;;;3.08;2.20;;;21.50;64.50;;;;;;4936147;29;20488;-77
2022/09/13 12:13:31;;;;;;;3.28;2.53;;;21.50;64.50;;;;;;4918673;29;20094;-78
2022/09/13 12:16:03;;;;;;;3.30;2.40;;;21.50;64.60;;;;;;4902597;29;20048;-77
2022/09/13 12:18:49;;;;;;;3.25;2.45;;;21.50;64.50;;;;;;4917824;29;20468;-78
2022/09/13 12:21:20;;;;;;;3.88;2.50;;;21.50;64.60;;;;;;4934892;29;20031;-77
2022/09/13 12:23:52;;;;;;;3.63;2.30;;;21.50;64.60;;;;;;4917439;29;20075;-77
2022/09/13 12:26:29;;;;;;;2.88;2.28;;;21.50;64.50;;;;;;4934900;29;20038;-77
2022/09/13 12:29:16;;;;;;;3.58;2.80;;;21.40;64.60;;;;;;4917719;29;20042;-78
2022/09/13 12:31:42;;;;;;;3.20;2.35;;;21.50;64.60;;;;;;4934738;29;20027;-78
2022/09/13 12:34:16;;;;;;;4.00;2.55;;;21.50;65.10;;;;;;4934213;29;20035;-77
2022/09/13 12:37:11;;;;;;;5.43;2.95;;;21.40;64.50;;;;;;4917598;29;20393;-77
2022/09/13 12:40:08;;;;;;;4.18;2.97;;;21.40;64.50;;;;;;4886723;29;20042;-77
2022/09/13 12:43:06;;;;;;;3.60;2.40;;;21.40;64.60;;;;;;4907665;29;20103;-78
2022/09/13 12:45:58;;;;;;;3.20;2.60;;;21.40;64.50;;;;;;4934251;29;20122;-77
2022/09/13 12:48:42;;;;;;;4.00;2.70;;;21.50;64.60;;;;;;4933987;29;20055;-77
2022/09/13 12:51:22;;;;;;;3.30;2.60;;;21.40;64.50;;;;;;4934443;29;20106;-77
2022/09/13 12:54:15;;;;;;;3.13;2.55;;;21.40;64.60;;;;;;4916984;29;20119;-77
2022/09/13 12:56:56;;;;;;;2.80;2.20;;;21.40;64.50;;;;;;4934889;29;20055;-77
2022/09/13 12:59:50;;;;;;;3.97;2.50;;;21.40;64.60;;;;;;4935414;29;20058;-77
2022/09/13 13:02:36;;;;;;;4.05;2.50;;;21.50;65.20;;;;;;4938347;29;20024;-77
2022/09/13 13:05:14;;;;;;;3.47;2.50;;;21.40;64.60;;;;;;4937949;29;20488;-77
2022/09/13 13:07:42;;;;;;;3.47;2.42;;;21.40;64.60;;;;;;4938253;29;20102;-77
2022/09/13 13:10:25;;;;;;;3.03;2.40;;;21.40;64.60;;;;;;4921032;29;20361;-77
2022/09/13 13:12:55;;;;;;;4.20;2.67;;;21.40;64.60;;;;;;4937958;29;20035;-77
2022/09/13 13:15:24;;;;;;;4.03;2.53;;;21.50;64.60;;;;;;4937779;29;20028;-77
2022/09/13 13:17:54;;;;;;;3.75;2.70;;;21.50;64.60;;;;;;4905377;29;20024;-77
2022/09/13 13:20:54;;;;;;;3.63;2.78;;;21.50;64.50;;;;;;4920970;29;20550;-77
2022/09/13 13:23:27;;;;;;;4.00;2.67;;;21.50;64.70;;;;;;4920797;29;20027;-76